Grizzly Air Cargo 5121


PANC
Ted Stevens Anchorage International Airport
Anchorage, Alaska, US
KSMF
Sacramento International Airport
Sacramento, California, US

Activity Log

Date Flight Route Aircraft Duration
08/28/2019 GRZ515 MDO B453 KANUA BOXER FOT V195 RBL TUDOR2 B738 4h 16m
06/28/2019 GRZ515 MDO B453 KANUA BOXER FOT V195 RBL TUDOR2 B738 4h 16m
06/26/2019 GRZ515 MDO B453 KANUA BOXER FOT V195 RBL TUDOR2 B738 4h 17m

Route Details

Aircraft Information
Primary: Boeing 737-800BCF
Backup: Not Available
Route Data
Distance: 1714nm
Sched. Duration: 4h 07m
Avg. Duration: 4h 16m (+10m)
Times Flown: 3
Recm'd Route: MDO B453 KANUA BOXER FOT V195 RBL TUDOR2
Planned Altitude: 35,000ft
Origin Wx: PANC 260719Z 35010KT 10SM -RA BKN007 BKN060 02/01 A2927 RMK AO2 P0000 T00170006 $
Dest. Wx: KSMF 260653Z 34020G26KT 10SM CLR 12/M10 A3005 RMK AO2 PK WND 34026/0652 SLP176 T01221100
Notes:

Financial History
Total Freight: 97,681lbs
Average Load: 32,560lbs/flt
Fuel Used: 66,854lbs
Avg. Fuel Used: 22,285lbs/flt
Fuel Expense: $82,899
Avg. Fuel Expense: $27,633
Avg. Fuel Cost: $1.24/lbs
Total Gross Income: $161,174
Pilot Pay: $527
Total Expenses: $17,563
Total Revenue: $58,242
Average Revenue: $53,724.55